Time;durP1;ratioP1;P1;durP2;ratioP2;P2;SDS_P1;SDS_P2;PMS_P1;PMS_P2;Temp;Humidity;BMP_temperature;BMP_pressure;BME280_temperature;BME280_humidity;BME280_pressure;Samples;Min_cycle;Max_cycle;Signal;HPM_P1;HPM_P2
2022/06/10 00:02:33;;;;;;;12.25;8.73;;;;;;;20.22;77.84;99817.91;5363617;32;35233;-67
2022/06/10 00:05:36;;;;;;;11.37;8.13;;;;;;;19.89;80.49;99815.50;5347720;32;35343;-72
2022/06/10 00:08:44;;;;;;;13.60;8.47;;;;;;;20.35;77.88;99823.00;5363357;32;35330;-65
2022/06/10 00:11:46;;;;;;;13.03;8.10;;;;;;;20.40;77.51;99838.59;5346409;32;34165;-68
2022/06/10 00:14:48;;;;;;;12.55;7.95;;;;;;;20.70;76.75;99846.56;5363037;32;34080;-66
2022/06/10 00:17:50;;;;;;;13.52;8.68;;;;;;;21.04;74.14;99848.84;5350398;32;46232;-70
2022/06/10 00:20:52;;;;;;;12.52;8.23;;;;;;;20.24;77.43;99841.78;5342607;32;34240;-70
2022/06/10 00:23:55;;;;;;;13.32;8.52;;;;;;;20.24;77.72;99855.13;5354599;32;34149;-67
2022/06/10 00:26:57;;;;;;;13.32;8.57;;;;;;;20.25;77.79;99848.78;5344896;32;35154;-66
2022/06/10 00:29:59;;;;;;;14.38;8.68;;;;;;;20.05;79.90;99865.69;5362990;32;35217;-71
2022/06/10 00:33:01;;;;;;;14.77;8.90;;;;;;;19.75;81.13;99844.19;5348100;32;33887;-70
2022/06/10 00:36:04;;;;;;;15.60;9.13;;;;;;;20.11;79.64;99858.00;5358799;32;35044;-66
2022/06/10 00:39:06;;;;;;;13.38;8.50;;;;;;;20.23;78.86;99854.28;5329400;32;34216;-68
2022/06/10 00:42:10;;;;;;;12.88;8.90;;;;;;;20.12;79.33;99854.34;5344857;32;32543;-65
2022/06/10 00:45:50;;;;;;;13.77;8.43;;;;;;;19.41;82.19;99848.87;5361035;32;34259;-69
2022/06/10 00:49:00;;;;;;;11.27;8.20;;;;;;;20.53;76.98;99845.38;5347014;32;35928;-66
2022/06/10 00:52:19;;;;;;;12.68;8.43;;;;;;;19.25;83.64;99856.44;5351890;32;34105;-67
2022/06/10 00:55:28;;;;;;;12.30;8.23;;;;;;;19.11;84.30;99859.41;5359905;32;45167;-68
2022/06/10 00:58:42;;;;;;;12.77;8.80;;;;;;;19.52;81.76;99863.97;5346836;32;35152;-70
2022/06/10 01:01:47;;;;;;;12.27;8.87;;;;;;;19.34;83.09;99869.00;5359430;32;35367;-65
2022/06/10 01:04:50;;;;;;;12.83;8.53;;;;;;;19.74;81.74;99871.00;5344976;32;44471;-66
2022/06/10 01:08:03;;;;;;;12.27;8.68;;;;;;;19.42;83.67;99865.69;5360398;32;35258;-66
2022/06/10 01:11:19;;;;;;;15.13;8.97;;;;;;;19.51;81.56;99874.72;5353554;32;34208;-66
2022/06/10 01:14:36;;;;;;;11.77;8.23;;;;;;;19.60;81.12;99876.66;5347951;32;47080;-65
2022/06/10 01:17:41;;;;;;;11.67;8.63;;;;;;;19.40;82.58;99884.50;5363511;32;34103;-69
2022/06/10 01:21:21;;;;;;;13.53;8.70;;;;;;;20.01;79.07;99879.28;5345020;32;34069;-65
2022/06/10 01:24:30;;;;;;;12.40;9.27;;;;;;;19.32;81.92;99878.97;5346245;32;33472;-67
2022/06/10 01:27:48;;;;;;;14.27;9.67;;;;;;;18.87;85.26;99902.22;5363531;32;35149;-65
2022/06/10 01:31:04;;;;;;;15.93;10.03;;;;;;;18.88;85.71;99894.13;5346781;32;37074;-66
2022/06/10 01:34:26;;;;;;;13.13;9.57;;;;;;;18.94;86.13;99896.28;5362188;32;34175;-65
2022/06/10 01:37:42;;;;;;;13.60;9.83;;;;;;;18.71;86.37;99888.47;5354300;32;46210;-70
2022/06/10 01:41:07;;;;;;;15.80;10.67;;;;;;;18.96;84.75;99874.00;5328484;32;34842;-67
2022/06/10 01:44:26;;;;;;;14.20;10.27;;;;;;;18.72;86.95;99898.97;5364557;32;34229;-70
2022/06/10 01:47:37;;;;;;;15.57;10.03;;;;;;;18.38;89.50;99922.09;5348724;32;45844;-67
2022/06/10 01:50:43;;;;;;;15.83;10.30;;;;;;;18.94;85.09;99930.91;5349363;32;35261;-65
2022/06/10 01:53:54;;;;;;;16.23;10.00;;;;;;;18.52;89.56;99929.81;5362381;32;35224;-65
2022/06/10 01:56:58;;;;;;;18.73;10.30;;;;;;;18.83;88.76;99922.94;5345163;32;46189;-66
2022/06/10 02:00:13;;;;;;;14.93;10.57;;;;;;;18.82;89.89;99925.72;5359724;32;34069;-67
2022/06/10 02:03:44;;;;;;;16.07;11.60;;;;;;;18.56;90.22;99925.97;5349049;32;34173;-68
2022/06/10 02:06:51;;;;;;;15.83;11.00;;;;;;;18.61;89.43;99933.56;5338832;32;34578;-69
2022/06/10 02:10:10;;;;;;;18.87;11.07;;;;;;;18.61;90.06;99930.88;5359391;32;47106;-69
2022/06/10 02:13:17;;;;;;;17.83;11.23;;;;;;;18.95;89.46;99939.72;5343216;32;34150;-66
2022/06/10 02:16:41;;;;;;;17.10;12.13;;;;;;;19.01;88.05;99946.38;5361623;32;35358;-69
2022/06/10 02:19:53;;;;;;;16.97;11.40;;;;;;;18.87;91.17;99939.47;5345711;32;34296;-66
2022/06/10 02:22:58;;;;;;;19.33;11.03;;;;;;;19.60;84.33;99951.31;5338749;32;46312;-68
2022/06/10 02:26:03;;;;;;;15.97;10.57;;;;;;;19.05;86.92;99967.28;5356096;32;34624;-65
2022/06/10 02:29:11;;;;;;;15.80;10.63;;;;;;;19.07;87.56;99980.50;5346870;32;35034;-68
2022/06/10 02:32:13;;;;;;;14.40;10.23;;;;;;;19.30;84.83;99981.28;5359934;32;35295;-65
2022/06/10 02:35:16;;;;;;;16.15;10.55;;;;;;;19.10;87.25;99985.56;5346825;32;37034;-65
2022/06/10 02:38:18;;;;;;;;;;;;;;;19.06;86.13;99978.78;5340332;32;35623;-68
2022/06/10 02:41:47;;;;;;;14.53;10.57;;;;;;;19.03;87.03;99968.41;5348054;32;44321;-69
2022/06/10 02:44:50;;;;;;;14.90;10.37;;;;;;;18.69;90.66;99984.41;5345827;32;34090;-70
2022/06/10 02:48:02;;;;;;;16.13;10.77;;;;;;;19.17;87.62;99981.44;5361056;32;44718;-69
2022/06/10 02:51:05;;;;;;;15.40;9.73;;;;;;;19.46;84.65;99992.41;5343833;32;33857;-68
2022/06/10 02:54:13;;;;;;;14.98;9.68;;;;;;;19.45;83.39;99999.53;5350846;32;33937;-70
2022/06/10 02:57:20;;;;;;;14.87;9.93;;;;;;;19.91;81.98;100008.25;5360239;32;34069;-66
2022/06/10 03:04:06;;;;;;;13.93;10.10;;;;;;;20.12;80.96;100011.75;5361550;32;35430;-71
2022/06/10 03:07:27;;;;;;;12.50;9.47;;;;;;;20.32;79.34;100017.22;5346753;32;34289;-66
2022/06/10 03:10:45;;;;;;;17.40;10.17;;;;;;;20.51;78.65;100014.69;5345649;32;38215;-67
2022/06/10 03:14:15;;;;;;;12.60;8.93;;;;;;;20.75;77.71;100009.06;5362762;32;35770;-66
2022/06/10 03:17:51;;;;;;;11.10;8.63;;;;;;;19.88;81.65;100020.00;5342583;32;34580;-69
2022/06/10 03:21:18;;;;;;;11.70;8.67;;;;;;;20.68;79.05;100014.09;5342366;32;34292;-66
2022/06/10 03:24:41;;;;;;;11.93;8.73;;;;;;;19.94;80.82;100018.62;5357858;32;47603;-68
2022/06/10 03:27:54;;;;;;;;;;;;;;;20.23;81.26;100018.88;5344599;32;35310;-66
2022/06/10 03:31:08;;;;;;;18.43;8.50;;;;;;;20.13;80.66;100031.28;5356481;32;44286;-67
2022/06/10 03:34:29;;;;;;;12.87;8.00;;;;;;;20.87;77.79;100013.31;5352604;32;36046;-66
2022/06/10 03:37:32;;;;;;;10.77;7.67;;;;;;;19.82;80.93;100015.19;5348911;32;34289;-66
2022/06/10 03:40:34;;;;;;;;;;;;;;;20.69;78.70;100009.59;5341241;32;35348;-67
2022/06/10 03:43:39;;;;;;;12.43;7.37;;;;;;;20.82;77.85;100011.06;5348471;32;34232;-69
2022/06/10 03:46:45;;;;;;;10.93;7.70;;;;;;;21.18;75.38;100008.75;5362988;32;33938;-64
2022/06/10 03:49:51;;;;;;;11.20;7.70;;;;;;;21.06;73.82;100016.06;5349508;32;35776;-68
2022/06/10 03:52:53;;;;;;;8.93;6.23;;;;;;;20.91;75.00;100025.41;5349612;32;44308;-66
2022/06/10 03:55:55;;;;;;;11.63;6.55;;;;;;;20.95;74.39;100026.00;5362002;32;34227;-67
2022/06/10 03:58:58;;;;;;;11.23;6.57;;;;;;;20.44;76.05;100026.84;5347964;32;33828;-66
2022/06/10 04:02:00;;;;;;;10.52;6.68;;;;;;;20.42;77.17;100029.66;5364502;32;35259;-69
2022/06/10 04:05:02;;;;;;;9.27;7.00;;;;;;;21.08;74.71;100022.09;5340172;32;33936;-66
2022/06/10 04:08:05;;;;;;;12.73;6.35;;;;;;;21.56;71.78;100026.72;5359221;32;35183;-69
2022/06/10 04:11:08;;;;;;;10.83;5.57;;;;;;;21.55;71.78;100027.72;5342212;32;34959;-69
2022/06/10 04:14:10;;;;;;;8.25;4.55;;;;;;;21.14;71.87;100030.56;5349327;32;34180;-70
2022/06/10 04:17:12;;;;;;;8.10;5.10;;;;;;;20.72;73.03;100036.84;5363995;32;35454;-69
2022/06/10 04:20:20;;;;;;;9.68;4.97;;;;;;;21.20;71.27;100035.38;5344758;32;35488;-69
2022/06/10 04:23:22;;;;;;;10.43;4.93;;;;;;;21.63;68.86;100037.72;5359171;32;45279;-69
2022/06/10 04:26:24;;;;;;;8.75;4.60;;;;;;;20.87;70.49;100045.38;5346692;32;35318;-70
2022/06/10 04:29:26;;;;;;;10.80;4.80;;;;;;;20.75;71.21;100054.47;5354649;32;35374;-70
2022/06/10 04:32:28;;;;;;;7.15;4.30;;;;;;;21.29;69.32;100053.28;5358745;32;35395;-67
2022/06/10 04:35:34;;;;;;;6.93;4.47;;;;;;;20.28;73.51;100064.66;5345354;32;34085;-67
2022/06/10 04:38:36;;;;;;;7.27;4.70;;;;;;;20.95;71.62;100068.75;5345889;32;34053;-67
2022/06/10 04:41:39;;;;;;;7.62;4.47;;;;;;;20.91;71.22;100067.31;5340585;32;34128;-70
2022/06/10 04:44:41;;;;;;;8.35;4.35;;;;;;;21.02;71.00;100076.09;5363016;32;36467;-71
2022/06/10 04:47:43;;;;;;;7.72;4.80;;;;;;;20.93;71.88;100081.37;5346985;32;36135;-69
2022/06/10 04:50:47;;;;;;;7.00;4.47;;;;;;;20.90;72.91;100077.16;5351817;32;37376;-69
2022/06/10 04:53:49;;;;;;;9.73;4.90;;;;;;;21.14;70.56;100079.50;5357211;32;46823;-69
2022/06/10 04:56:51;;;;;;;8.60;5.45;;;;;;;20.81;72.93;100085.97;5349644;32;34338;-69
2022/06/10 04:59:54;;;;;;;7.37;4.85;;;;;;;20.42;74.22;100088.37;5361857;32;34303;-66
2022/06/10 05:02:56;;;;;;;9.32;5.93;;;;;;;21.30;70.82;100084.37;5347734;32;32706;-71
2022/06/10 05:05:59;;;;;;;9.60;4.87;;;;;;;20.68;73.24;100094.19;5364660;32;34217;-67
2022/06/10 05:09:01;;;;;;;9.70;5.87;;;;;;;20.18;76.20;100098.44;5345625;32;34042;-66
2022/06/10 05:12:03;;;;;;;7.55;5.03;;;;;;;20.61;74.84;100084.16;5351143;32;33980;-69
2022/06/10 05:15:06;;;;;;;11.20;5.80;;;;;;;20.64;73.54;100091.91;5361223;32;37704;-70
2022/06/10 05:18:10;;;;;;;10.35;5.00;;;;;;;20.76;74.51;100093.53;5344387;32;35273;-68
2022/06/10 05:21:13;;;;;;;7.70;4.80;;;;;;;21.59;70.50;100095.16;5356147;32;35414;-71
2022/06/10 05:24:15;;;;;;;10.32;5.72;;;;;;;20.53;74.61;100109.69;5328436;32;35438;-67
2022/06/10 05:27:17;;;;;;;;;;;;;;;20.53;75.51;100111.50;5360770;32;34435;-65
2022/06/10 05:30:22;;;;;;;11.10;5.90;;;;;;;22.19;68.73;100105.78;5345151;32;36241;-69
2022/06/10 05:34:44;;;;;;;10.07;5.23;;;;;;;21.62;70.34;100117.09;5346582;32;35336;-66
2022/06/10 05:36:47;;;;;;;14.13;5.82;;;;;;;22.71;65.97;100125.88;5357895;32;36151;-67
2022/06/10 05:39:49;;;;;;;8.35;5.68;;;;;;;21.83;68.81;100119.69;5324659;32;34284;-70
2022/06/10 05:42:51;;;;;;;13.20;7.25;;;;;;;22.49;66.78;100120.88;5363079;32;45204;-68
2022/06/10 05:45:54;;;;;;;9.18;5.80;;;;;;;22.97;63.73;100123.44;5348205;32;35597;-65
2022/06/10 05:48:56;;;;;;;18.10;8.95;;;;;;;22.32;66.18;100119.75;5329647;32;35385;-67
2022/06/10 05:51:58;;;;;;;9.98;5.40;;;;;;;22.17;67.54;100128.19;5345512;32;34366;-67
2022/06/10 05:55:05;;;;;;;10.25;5.60;;;;;;;21.86;68.00;100145.31;5337952;32;34145;-70
2022/06/10 05:58:10;;;;;;;13.77;6.53;;;;;;;21.58;69.76;100133.56;5351295;32;34162;-67
2022/06/10 06:01:12;;;;;;;11.57;6.00;;;;;;;21.90;69.65;100141.38;5335209;32;34206;-69
2022/06/10 06:04:14;;;;;;;9.30;6.07;;;;;;;22.62;65.78;100148.19;5346707;32;34217;-69
2022/06/10 06:07:25;;;;;;;10.65;5.60;;;;;;;22.01;67.29;100149.28;5340461;32;34232;-68
2022/06/10 06:10:28;;;;;;;13.73;5.60;;;;;;;22.22;67.07;100151.88;5344733;32;46980;-73
2022/06/10 06:13:30;;;;;;;10.35;5.65;;;;;;;23.05;64.76;100149.53;5357608;32;35141;-68
2022/06/10 06:16:33;;;;;;;16.20;6.45;;;;;;;22.98;64.51;100149.25;5344020;32;35620;-75
2022/06/10 06:19:36;;;;;;;11.05;6.20;;;;;;;22.43;67.48;100157.94;5340841;32;34115;-73
2022/06/10 06:22:38;;;;;;;9.55;5.12;;;;;;;23.30;63.94;100156.06;5342920;32;32603;-69
2022/06/10 06:25:41;;;;;;;12.75;5.45;;;;;;;24.97;56.56;100151.91;5355692;32;34073;-75
2022/06/10 06:28:43;;;;;;;;;;;;;;;25.25;56.23;100160.72;5349023;32;34357;-69
2022/06/10 06:31:45;;;;;;;10.68;4.07;;;;;;;26.62;50.63;100157.75;5344531;32;33562;-72
2022/06/10 06:34:47;;;;;;;9.75;4.05;;;;;;;26.76;49.47;100162.44;5360317;32;35305;-69
2022/06/10 06:37:50;;;;;;;12.05;4.68;;;;;;;25.85;51.72;100162.50;5338422;32;46133;-71
2022/06/10 06:40:52;;;;;;;;;;;;;;;26.08;51.81;100165.38;5344526;32;34271;-73
2022/06/10 06:43:54;;;;;;;15.45;4.37;;;;;;;25.28;51.39;100167.59;5348273;32;35021;-68
2022/06/10 06:46:56;;;;;;;;;;;;;;;27.04;47.84;100162.91;5362966;32;34103;-70
2022/06/10 06:49:58;;;;;;;;;;;;;;;27.85;45.75;100158.28;5349779;32;34792;-70
2022/06/10 06:53:01;;;;;;;6.30;3.55;;;;;;;27.86;45.07;100176.16;5348645;32;34592;-71
2022/06/10 06:56:08;;;;;;;12.45;5.70;;;;;;;26.34;47.95;100176.03;5362930;32;33962;-72
2022/06/10 06:59:10;;;;;;;7.30;3.60;;;;;;;27.05;46.62;100166.44;5347191;32;34174;-69
2022/06/10 07:02:15;;;;;;;8.63;3.30;;;;;;;27.11;46.32;100172.00;5361604;32;37594;-70
2022/06/10 07:05:17;;;;;;;6.28;2.85;;;;;;;28.37;43.26;100169.28;5342778;32;35275;-70
2022/06/10 07:08:20;;;;;;;8.05;3.10;;;;;;;28.05;42.72;100165.75;5350317;32;37780;-71
2022/06/10 07:11:22;;;;;;;7.30;3.65;;;;;;;28.00;43.29;100167.31;5353786;32;34334;-74
2022/06/10 07:14:24;;;;;;;8.15;3.67;;;;;;;30.20;39.13;100162.37;5349688;32;34220;-72
2022/06/10 07:17:26;;;;;;;8.80;3.70;;;;;;;28.98;41.74;100167.44;5361431;32;34121;-72
2022/06/10 07:20:31;;;;;;;6.20;3.37;;;;;;;27.28;45.68;100170.13;5350527;32;34200;-69
2022/06/10 07:23:35;;;;;;;8.40;3.20;;;;;;;29.57;40.74;100175.59;5355067;32;35126;-70
2022/06/10 07:26:38;;;;;;;5.90;3.20;;;;;;;30.12;39.89;100165.22;5343998;32;33770;-69
2022/06/10 07:29:40;;;;;;;8.10;3.58;;;;;;;29.67;40.18;100168.00;5351606;32;34059;-67
2022/06/10 07:32:43;;;;;;;10.18;5.43;;;;;;;29.02;40.71;100176.00;5354720;32;34414;-68
2022/06/10 07:35:45;;;;;;;7.47;2.95;;;;;;;30.38;38.14;100160.06;5351993;32;36488;-70
2022/06/10 07:38:48;;;;;;;10.27;2.87;;;;;;;30.16;37.16;100159.25;5349391;32;34061;-68
2022/06/10 07:42:02;;;;;;;4.82;2.90;;;;;;;29.78;38.47;100173.97;5349291;32;44376;-71
2022/06/10 07:45:05;;;;;;;5.68;2.90;;;;;;;28.80;38.78;100172.31;5365329;32;34465;-69
2022/06/10 07:48:08;;;;;;;4.45;2.67;;;;;;;28.78;38.88;100168.94;5347993;32;34123;-68
2022/06/10 07:51:10;;;;;;;6.68;3.50;;;;;;;29.32;37.26;100174.19;5349443;32;35399;-68
2022/06/10 07:54:13;;;;;;;7.97;3.37;;;;;;;29.18;38.55;100175.03;5358568;32;34250;-73
2022/06/10 07:57:15;;;;;;;5.10;3.30;;;;;;;28.68;40.15;100180.03;5343422;32;35775;-74
2022/06/10 08:00:21;;;;;;;6.75;3.55;;;;;;;30.19;36.55;100177.81;5356336;32;34592;-70
2022/06/10 08:03:24;;;;;;;6.53;3.35;;;;;;;30.44;35.74;100180.16;5353605;32;44406;-74
2022/06/10 08:06:29;;;;;;;11.25;4.25;;;;;;;31.42;33.88;100179.28;5364353;32;31984;-73
2022/06/10 08:09:31;;;;;;;6.03;3.10;;;;;;;29.57;37.35;100180.19;5356079;32;35632;-76
2022/06/10 08:12:33;;;;;;;7.50;2.92;;;;;;;28.45;40.34;100182.72;5347320;32;34118;-80
2022/06/10 08:15:36;;;;;;;7.10;3.47;;;;;;;30.17;36.96;100181.75;5366793;32;35710;-75
2022/06/10 08:18:41;;;;;;;6.85;3.15;;;;;;;29.52;38.18;100180.72;5353360;32;35384;-75
2022/06/10 08:22:33;;;;;;;9.77;3.45;;;;;;;31.12;34.75;100191.41;5362066;32;42829;-75
2022/06/10 08:25:16;;;;;;;5.47;3.10;;;;;;;30.98;34.96;100179.63;5338103;32;34079;-72
2022/06/10 08:28:19;;;;;;;4.60;2.90;;;;;;;32.68;32.35;100190.59;5348558;32;35245;-72
2022/06/10 08:31:21;;;;;;;8.05;3.05;;;;;;;31.93;33.35;100181.62;5364665;32;44384;-72
2022/06/10 08:34:24;;;;;;;5.12;2.90;;;;;;;31.25;33.37;100181.50;5353232;32;34246;-74
2022/06/10 08:37:26;;;;;;;7.37;3.08;;;;;;;29.74;36.72;100195.19;5363672;32;35571;-69
2022/06/10 08:40:44;;;;;;;8.50;3.15;;;;;;;29.51;36.83;100203.44;5335734;32;35061;-76
2022/06/10 08:44:17;;;;;;;7.87;3.40;;;;;;;30.14;36.22;100188.41;5357516;32;35946;-82
2022/06/10 08:47:44;;;;;;;7.07;3.25;;;;;;;30.65;34.75;100180.13;5346524;32;35790;-81
2022/06/10 08:50:59;;;;;;;8.73;3.25;;;;;;;30.55;34.95;100190.47;5334776;32;35616;-73
2022/06/10 08:54:19;;;;;;;6.25;3.08;;;;;;;32.03;32.45;100189.41;5353251;32;34067;-73
2022/06/10 08:57:39;;;;;;;7.90;2.95;;;;;;;31.71;33.08;100193.66;5355148;32;44567;-81
2022/06/10 09:00:44;;;;;;;5.80;3.20;;;;;;;31.07;34.35;100191.97;5350193;32;35672;-74
2022/06/10 09:03:51;;;;;;;7.95;3.28;;;;;;;33.66;30.13;100201.59;5350966;32;34133;-76
2022/06/10 09:07:00;;;;;;;8.02;3.40;;;;;;;31.05;33.70;100198.66;5348919;32;44384;-83
2022/06/10 09:10:05;;;;;;;9.90;3.40;;;;;;;32.56;31.77;100197.69;5359656;32;33768;-77
2022/06/10 09:13:16;;;;;;;5.72;3.17;;;;;;;32.03;32.63;100192.97;5347386;32;34529;-79
2022/06/10 09:16:35;;;;;;;7.90;3.10;;;;;;;32.49;31.69;100196.84;5345377;32;33890;-76
2022/06/10 09:19:59;;;;;;;6.35;3.30;;;;;;;32.43;32.33;100194.97;5361493;32;34266;-74
2022/06/10 09:23:28;;;;;;;8.95;3.80;;;;;;;33.22;30.74;100194.13;5347337;32;34332;-76
2022/06/10 09:26:39;;;;;;;6.90;2.85;;;;;;;32.07;32.82;100202.41;5343522;32;34080;-73
2022/06/10 09:29:42;;;;;;;8.60;3.12;;;;;;;31.88;32.23;100195.00;5365362;32;35417;-74
2022/06/10 09:32:44;;;;;;;8.80;3.53;;;;;;;30.88;34.94;100204.38;5347652;32;34240;-74
2022/06/10 09:36:08;;;;;;;8.20;3.30;;;;;;;30.72;35.10;100194.66;5364610;32;45034;-75
2022/06/10 09:43:03;;;;;;;7.57;3.55;;;;;;;31.82;33.46;100201.25;5346157;32;34327;-71
2022/06/10 09:46:10;;;;;;;7.05;3.55;;;;;;;33.62;30.68;100200.34;5355039;32;34833;-71
2022/06/10 09:49:50;;;;;;;8.02;3.30;;;;;;;33.75;31.08;100207.63;5348793;32;36095;-72
2022/06/10 09:53:03;;;;;;;6.95;3.37;;;;;;;32.67;32.32;100207.13;5347674;32;34502;-72
2022/06/10 09:56:29;;;;;;;8.05;3.20;;;;;;;32.67;31.77;100207.13;5360570;32;34321;-74
2022/06/10 09:59:49;;;;;;;6.90;3.03;;;;;;;32.32;32.40;100201.81;5345310;32;34936;-73
2022/06/10 10:03:16;;;;;;;7.67;3.33;;;;;;;34.01;30.22;100201.28;5357690;32;43866;-70
2022/06/10 10:06:52;;;;;;;5.65;3.28;;;;;;;31.94;33.20;100213.19;5349276;32;34661;-71
2022/06/10 10:10:18;;;;;;;8.55;3.65;;;;;;;33.65;30.73;100213.56;5308948;32;32703;-70
2022/06/10 10:13:38;;;;;;;7.90;3.20;;;;;;;32.67;33.12;100202.53;5341990;32;44518;-71
2022/06/10 10:17:05;;;;;;;8.60;4.75;;;;;;;32.91;32.37;100211.13;5339565;32;34108;-70
2022/06/10 10:20:43;;;;;;;7.68;3.15;;;;;;;32.86;32.35;100204.44;5348042;32;36159;-70
2022/06/10 10:23:48;;;;;;;7.70;3.67;;;;;;;32.77;32.65;100204.81;5357792;32;35800;-71
2022/06/10 10:26:51;;;;;;;4.07;3.05;;;;;;;33.83;30.44;100204.69;5340747;32;44519;-72
2022/06/10 10:30:13;;;;;;;8.43;4.18;;;;;;;34.47;29.30;100204.59;5352961;32;32792;-76
2022/06/10 10:33:16;;;;;;;4.82;3.10;;;;;;;31.11;35.20;100208.69;5359537;32;34185;-70
2022/06/10 10:36:31;;;;;;;7.03;3.00;;;;;;;32.91;32.17;100205.69;5346734;32;35236;-70
2022/06/10 10:39:36;;;;;;;8.20;3.28;;;;;;;33.19;31.25;100209.03;5343498;32;35477;-70
2022/06/10 10:42:41;;;;;;;5.93;3.40;;;;;;;33.82;29.92;100203.84;5345333;32;35857;-73
2022/06/10 10:46:04;;;;;;;6.30;3.30;;;;;;;33.68;30.48;100197.63;5354494;32;35797;-71
2022/06/10 10:49:22;;;;;;;6.80;2.97;;;;;;;35.70;26.78;100195.72;5360104;32;34345;-73
2022/06/10 10:52:42;;;;;;;6.12;3.03;;;;;;;33.31;29.70;100201.88;5342683;32;44453;-75
2022/06/10 10:55:49;;;;;;;9.65;3.25;;;;;;;33.12;30.21;100206.31;5359672;32;35239;-70
2022/06/10 10:58:57;;;;;;;8.52;3.10;;;;;;;35.50;26.40;100189.66;5347864;32;46670;-73
2022/06/10 11:02:00;;;;;;;5.65;3.05;;;;;;;33.89;28.97;100192.91;5330809;32;34036;-70
2022/06/10 11:05:15;;;;;;;5.30;2.95;;;;;;;35.30;27.23;100186.28;5356375;32;34750;-72
2022/06/10 11:08:22;;;;;;;7.43;3.37;;;;;;;36.55;25.41;100181.94;5340231;32;36124;-67
2022/06/10 11:11:35;;;;;;;9.93;3.80;;;;;;;33.17;29.68;100196.66;5358174;32;44300;-71
2022/06/10 11:14:47;;;;;;;5.30;3.35;;;;;;;33.56;31.43;100187.59;5344476;32;35049;-72
2022/06/10 11:17:50;;;;;;;7.55;3.62;;;;;;;34.70;30.26;100182.16;5342351;32;43175;-75
2022/06/10 11:21:00;;;;;;;6.62;3.10;;;;;;;36.06;27.68;100170.22;5359715;32;35759;-74
2022/06/10 11:24:03;;;;;;;7.53;3.03;;;;;;;35.50;27.40;100174.09;5339274;32;34244;-74
2022/06/10 11:27:23;;;;;;;5.70;2.55;;;;;;;35.84;25.27;100174.50;5354141;32;34077;-72
2022/06/10 11:30:55;;;;;;;6.03;3.10;;;;;;;36.22;25.36;100160.53;5341183;32;46384;-78
2022/06/10 11:33:59;;;;;;;7.95;3.33;;;;;;;36.85;25.25;100170.91;5330509;32;45152;-79
2022/06/10 11:37:27;;;;;;;6.37;3.45;;;;;;;37.37;25.81;100159.25;5355654;32;35485;-78
2022/06/10 11:40:52;;;;;;;5.68;3.35;;;;;;;36.88;26.41;100169.63;5320843;32;45742;-79
2022/06/10 11:44:11;;;;;;;5.37;3.28;;;;;;;35.07;29.24;100160.44;5337453;32;45013;-78
2022/06/10 11:47:23;;;;;;;6.43;3.37;;;;;;;32.98;33.14;100176.59;5352565;32;34292;-70
2022/06/10 11:50:27;;;;;;;;;;;;;;;34.01;32.56;100157.66;5342028;32;44848;-69
2022/06/10 11:53:50;;;;;;;7.40;3.50;;;;;;;35.79;30.16;100163.41;5359606;32;35045;-69
2022/06/10 12:01:19;;;;;;;8.55;3.53;;;;;;;33.95;30.19;100153.91;5332451;32;34594;-79
2022/06/10 12:04:29;;;;;;;7.80;3.87;;;;;;;33.46;32.00;100152.63;5337569;32;46318;-79
2022/06/10 12:07:32;;;;;;;7.72;3.90;;;;;;;33.07;33.39;100153.53;5344435;32;35102;-71
2022/06/10 12:10:53;;;;;;;6.15;3.65;;;;;;;31.46;36.90;100147.12;5351596;32;35412;-77
2022/06/10 12:14:11;;;;;;;8.63;4.30;;;;;;;31.55;37.29;100145.91;5364648;32;44608;-79
2022/06/10 12:17:24;;;;;;;9.00;4.10;;;;;;;31.67;36.44;100138.03;5333017;32;34748;-71
2022/06/10 12:20:46;;;;;;;9.02;3.75;;;;;;;31.69;36.41;100127.81;5360473;32;45902;-79
2022/06/10 12:23:49;;;;;;;9.50;4.07;;;;;;;31.17;36.71;100132.75;5348485;32;34177;-78
2022/06/10 12:26:51;;;;;;;6.87;3.97;;;;;;;30.36;38.73;100136.91;5344980;32;44999;-69
2022/06/10 12:30:02;;;;;;;5.80;3.60;;;;;;;30.91;37.27;100121.72;5364422;32;34439;-70
2022/06/10 12:33:13;;;;;;;9.23;3.70;;;;;;;31.46;36.20;100114.56;5346379;32;33189;-71
2022/06/10 12:36:29;;;;;;;7.75;3.62;;;;;;;30.13;38.48;100116.25;5361289;32;34466;-77
2022/06/10 12:39:51;;;;;;;9.98;3.80;;;;;;;30.33;37.78;100107.47;5327846;32;34662;-76
2022/06/10 12:43:06;;;;;;;8.77;3.35;;;;;;;30.65;38.22;100106.06;5346423;32;44415;-79
2022/06/10 12:46:27;;;;;;;14.15;5.05;;;;;;;31.34;36.15;100097.16;5364806;32;35506;-78
2022/06/10 12:49:39;;;;;;;8.48;4.03;;;;;;;30.54;37.75;100110.16;5348093;32;43493;-79
2022/06/10 12:53:03;;;;;;;6.30;3.62;;;;;;;30.15;38.60;100116.91;5345135;32;34642;-77
2022/06/10 12:56:38;;;;;;;7.28;3.72;;;;;;;30.04;38.60;100121.97;5360143;32;35407;-77
2022/06/10 12:59:40;;;;;;;7.20;4.00;;;;;;;30.48;37.91;100119.91;5349184;32;34169;-78
2022/06/10 13:02:44;;;;;;;10.18;3.70;;;;;;;30.40;37.59;100121.91;5362282;32;35289;-70
2022/06/10 13:05:48;;;;;;;5.53;3.65;;;;;;;29.29;39.64;100132.06;5344632;32;34793;-78
2022/06/10 13:08:59;;;;;;;7.30;3.83;;;;;;;29.61;39.65;100125.44;5334845;32;44615;-78
2022/06/10 13:12:07;;;;;;;8.88;3.95;;;;;;;30.31;37.46;100120.38;5358118;32;35359;-80
2022/06/10 13:15:24;;;;;;;9.02;3.70;;;;;;;30.33;37.52;100124.56;5347970;32;34535;-78
2022/06/10 13:18:29;;;;;;;8.40;3.78;;;;;;;30.70;37.27;100128.87;5362692;32;44268;-69
2022/06/10 13:21:39;;;;;;;7.72;4.00;;;;;;;30.43;38.21;100124.25;5343705;32;34028;-68
2022/06/10 13:24:41;;;;;;;11.43;4.28;;;;;;;30.10;39.38;100129.34;5339595;32;34466;-77
2022/06/10 13:27:46;;;;;;;9.93;4.30;;;;;;;29.60;40.83;100112.09;5356797;32;35587;-69
2022/06/10 13:30:49;;;;;;;6.85;3.83;;;;;;;29.29;41.23;100118.53;5346335;32;33284;-69
2022/06/10 13:33:59;;;;;;;6.43;3.67;;;;;;;29.54;39.76;100129.09;5365716;32;44779;-80
2022/06/10 13:37:12;;;;;;;8.15;5.18;;;;;;;30.07;39.71;100119.69;5347369;32;34863;-80
2022/06/10 13:40:21;;;;;;;7.70;3.87;;;;;;;28.97;40.23;100130.56;5308930;32;34700;-77
2022/06/10 13:43:32;;;;;;;7.93;3.58;;;;;;;29.99;38.68;100111.69;5350522;32;44594;-68
2022/06/10 13:46:35;;;;;;;7.45;4.07;;;;;;;30.51;36.67;100115.97;5346351;32;35133;-77
2022/06/10 13:49:50;;;;;;;5.53;3.67;;;;;;;30.68;35.93;100103.00;5362334;32;34382;-78
2022/06/10 13:52:59;;;;;;;9.13;4.35;;;;;;;29.44;38.83;100110.41;5347321;32;44528;-78
2022/06/10 13:56:04;;;;;;;8.00;4.32;;;;;;;29.52;38.45;100115.75;5361644;32;35214;-69
2022/06/10 13:59:08;;;;;;;7.85;4.85;;;;;;;29.73;39.29;100111.41;5345101;32;35502;-70
2022/06/10 14:02:15;;;;;;;6.25;4.00;;;;;;;29.28;40.94;100113.31;5348013;32;34794;-68
2022/06/10 14:05:22;;;;;;;7.68;4.65;;;;;;;30.14;39.43;100106.25;5366084;32;35666;-68
2022/06/10 14:08:28;;;;;;;8.15;4.60;;;;;;;30.02;40.08;100100.50;5332472;32;46677;-78
2022/06/10 14:11:38;;;;;;;9.55;4.30;;;;;;;30.40;39.16;100114.66;5362832;32;34740;-77
2022/06/10 14:14:41;;;;;;;7.95;4.10;;;;;;;30.63;37.84;100113.56;5348558;32;34961;-69
2022/06/10 14:17:49;;;;;;;9.63;4.30;;;;;;;29.31;40.47;100112.97;5355119;32;35171;-79
2022/06/10 14:20:53;;;;;;;6.70;4.20;;;;;;;30.32;38.27;100106.62;5354936;32;44692;-79
2022/06/10 14:24:13;;;;;;;8.38;4.10;;;;;;;30.52;38.06;100095.09;5343612;32;34634;-76
2022/06/10 14:27:22;;;;;;;7.97;3.80;;;;;;;29.81;39.26;100095.88;5358071;32;36053;-78
2022/06/10 14:30:32;;;;;;;5.68;3.70;;;;;;;30.09;38.68;100090.56;5346561;32;44682;-79
2022/06/10 14:33:45;;;;;;;11.12;4.45;;;;;;;29.50;39.26;100090.72;5355192;32;34941;-75
2022/06/10 14:36:57;;;;;;;6.85;4.12;;;;;;;30.15;38.13;100091.69;5358719;32;34623;-77
2022/06/10 14:40:19;;;;;;;6.68;3.87;;;;;;;30.33;37.74;100093.91;5328159;32;36561;-69
2022/06/10 14:43:24;;;;;;;8.65;3.83;;;;;;;29.75;38.16;100099.34;5361617;32;43900;-69
2022/06/10 14:46:27;;;;;;;6.95;3.78;;;;;;;29.25;39.20;100108.31;5348819;32;34689;-70
2022/06/10 14:49:45;;;;;;;6.82;4.12;;;;;;;29.51;39.13;100110.50;5350892;32;35777;-68
2022/06/10 14:52:49;;;;;;;6.35;4.15;;;;;;;29.36;39.17;100121.34;5361844;32;34168;-78